Aérodrome :
LOGIN :

S'inscrire | Disclaimer

   EN    FR    IT 

 










Légende :    VFR   VFR Marginal   IFR   IFR Intensif   IFR Très Intensif
Visi : 
Plafond : 
>= 8 km
>= 3000ft
5 à 8 km
1000 à 3000 ft
1500m à 5 km
500 à 1000 ft
800 à 1500m
200 à 500 ft
< 800m
< 200 ft
Symboles :   Orages  Brouillard  Fortes neiges  Fortes précipitations  Vent > 20 kt
SIGMETs :   Divers  Orages  Givrage  Turbulence  Onde Orograph.  Cendres Volcan.







- Altitude de l'aérodrome : 37 ft


EHVL - Vlieland Heliport

DERNIER METAR :
  • 102000Z AUTO 32024KT 9000 HZ FEW021 SCT024 BKN027 07/04 Q1022 WHT

METARs EXPIRÉS :
  • 101925Z AUTO 33025KT 9000 HZ FEW030 08/03 Q1022 BLU
  • 101855Z AUTO 32025KT 9000 HZ FEW017CB BKN033 OVC038 08/04 Q1021 BLU
  • 101825Z AUTO 32024KT 9000 HZ FEW020 SCT033 BKN039 08/04 Q1021 BLU
  • 101805Z AUTO 34025KT 9999 FEW018 SCT037 BKN041 07/03 Q1021 BLU
  • 101801Z AUTO 33024KT 9000 -RA FEW018 SCT024 BKN059 07/04 Q1021 WHT
  • 101725Z AUTO 33027KT 9999 FEW018CB 08/03 Q1021 BLU
  • 101705Z AUTO 33028KT 9000 HZ FEW026 08/03 Q1021 BLU

Prévision TAF périmée.
Pas de NOTAMs connus pour ce terrain.



MET'MAP, la Météo Aéronautique d'un coup d'oeil ! - Copyright ORBIFLY Décembre 2007 - Disclaimer

ORBIFLY MET'MAP TEAM :

Programmation & Développement : Alexandra Zaïnal
Conception & Développement : Baudouin d'Aumeries
Co-Programmation & Développement : Marc-Olivier Méhu
Soutien technique & logistique : Manuel Goepfert

Contact : metmap@orbifly.com




SOURCES & CREDITS :

   NOAA